• 1
  • 2
  • 1

 

 

 
NEU! ab. 1.4.
Nortel Info 128,740 MHz

WebCam

  
Kamera Halle
Kamera Vorfeld
Wetter EDDS

METAR

EDDS 161720Z 09003KT 040V150 CAVOK 29/10 Q1014 NOSIG =


TAF

EDDS 161700Z 1618/1718 VRB02KT CAVOK BECMG 1709/1711 29007KT PROB40 TEMPO 1717/1718 28015G25KT TSRA BKN030CB =


SR/SS

04:16 / 18:34 UTC
(EDSO 16-08-2018)